createdAt,value
2022-08-03T00:01:23.594Z,2.22
2022-08-03T00:03:50.208Z,2.17
2022-08-03T00:06:16.829Z,2.55
2022-08-03T00:08:43.511Z,2.30
2022-08-03T00:11:11.550Z,2.50
2022-08-03T00:13:38.267Z,2.35
2022-08-03T00:16:08.351Z,2.60
2022-08-03T00:18:34.998Z,2.55
2022-08-03T00:21:02.101Z,2.45
2022-08-03T00:23:51.570Z,2.50
2022-08-03T00:26:16.942Z,2.50
2022-08-03T00:28:43.596Z,2.60
2022-08-03T00:31:10.495Z,2.70
2022-08-03T00:33:58.172Z,2.50
2022-08-03T00:36:26.638Z,2.40
2022-08-03T00:38:53.292Z,2.10
2022-08-03T00:41:21.445Z,2.23
2022-08-03T00:43:48.405Z,2.17
2022-08-03T00:46:20.595Z,2.35
2022-08-03T00:48:48.514Z,2.30
2022-08-03T00:51:15.276Z,2.17
2022-08-03T00:53:41.938Z,2.17
2022-08-03T00:56:08.703Z,2.13
2022-08-03T00:58:37.257Z,2.30
2022-08-03T01:01:03.931Z,2.42
2022-08-03T01:03:30.642Z,2.50
2022-08-03T01:06:03.866Z,2.33
2022-08-03T01:08:42.538Z,2.40
2022-08-03T01:11:16.550Z,2.35
2022-08-03T01:14:01.314Z,2.40
2022-08-03T01:16:37.429Z,2.90
2022-08-03T01:19:21.388Z,2.60
2022-08-03T01:22:01.080Z,2.38
2022-08-03T01:24:37.561Z,2.60
2022-08-03T01:27:12.638Z,2.42
2022-08-03T01:30:02.581Z,2.40
2022-08-03T01:32:59.658Z,2.50
2022-08-03T01:35:29.285Z,2.67
2022-08-03T01:38:00.162Z,2.60
2022-08-03T01:40:28.387Z,2.47
2022-08-03T01:42:57.285Z,2.90
2022-08-03T01:45:26.551Z,2.20
2022-08-03T01:47:54.089Z,2.53
2022-08-03T01:50:24.694Z,2.13
2022-08-03T01:52:52.830Z,2.50
2022-08-03T01:55:21.158Z,2.20
2022-08-03T01:58:06.217Z,2.30
2022-08-03T02:00:36.537Z,2.40
2022-08-03T02:03:05.742Z,2.38
2022-08-03T02:05:33.473Z,2.50
2022-08-03T02:08:01.787Z,2.28
2022-08-03T02:10:34.501Z,2.30
2022-08-03T02:13:05.064Z,2.38
2022-08-03T02:15:35.725Z,2.40
2022-08-03T02:18:04.951Z,2.03
2022-08-03T02:20:33.633Z,2.65
2022-08-03T02:23:00.392Z,2.70
2022-08-03T02:25:28.186Z,2.28
2022-08-03T02:27:58.574Z,2.47
2022-08-03T02:30:30.957Z,2.30
2022-08-03T02:32:59.905Z,2.30
2022-08-03T02:35:28.214Z,2.50
2022-08-03T02:38:00.999Z,2.38
2022-08-03T02:40:29.233Z,2.70
2022-08-03T02:42:59.311Z,2.38
2022-08-03T02:45:27.885Z,2.45
2022-08-03T02:47:59.824Z,2.53
2022-08-03T02:50:29.412Z,2.60
2022-08-03T02:52:58.360Z,2.70
2022-08-03T02:55:27.228Z,2.40
2022-08-03T02:57:55.601Z,2.50
2022-08-03T03:00:28.027Z,2.50
2022-08-03T03:02:57.862Z,2.40
2022-08-03T03:05:52.107Z,3.05
2022-08-03T03:08:18.980Z,2.55
2022-08-03T03:10:47.898Z,2.70
2022-08-03T03:13:15.706Z,2.63
2022-08-03T03:15:44.081Z,2.45
2022-08-03T03:18:11.212Z,3.17
2022-08-03T03:20:39.772Z,3.20
2022-08-03T03:23:08.955Z,2.88
2022-08-03T03:25:38.257Z,2.83
2022-08-03T03:28:06.226Z,2.95
2022-08-03T03:30:34.045Z,2.95
2022-08-03T03:33:00.892Z,3.05
2022-08-03T03:35:27.912Z,3.45
2022-08-03T03:37:55.071Z,2.77
2022-08-03T03:40:23.950Z,2.88
2022-08-03T03:42:52.150Z,3.55
2022-08-03T03:45:20.583Z,2.90
2022-08-03T03:47:47.592Z,3.10
2022-08-03T03:50:17.560Z,3.37
2022-08-03T03:52:44.225Z,2.92
2022-08-03T03:55:15.064Z,3.17
2022-08-03T03:57:41.740Z,3.00
2022-08-03T04:00:11.433Z,2.90
2022-08-03T04:02:39.140Z,3.30
2022-08-03T04:05:07.429Z,3.20
2022-08-03T04:07:55.047Z,3.50
2022-08-03T04:10:25.111Z,3.20
2022-08-03T04:12:53.171Z,3.10
2022-08-03T04:15:23.994Z,2.83
2022-08-03T04:17:53.185Z,2.90
2022-08-03T04:20:28.292Z,3.10
2022-08-03T04:22:56.810Z,3.08
2022-08-03T04:25:28.884Z,3.22
2022-08-03T04:28:19.701Z,3.10
2022-08-03T04:30:48.691Z,2.72
2022-08-03T04:33:17.284Z,3.55
2022-08-03T04:35:58.495Z,3.83
2022-08-03T04:38:31.388Z,2.90
2022-08-03T04:40:59.168Z,3.40
2022-08-03T04:43:26.746Z,2.90
2022-08-03T04:45:55.773Z,3.25
2022-08-03T04:48:22.903Z,2.97
2022-08-03T04:50:49.645Z,3.10
2022-08-03T04:53:16.864Z,3.23
2022-08-03T04:55:43.643Z,3.05
2022-08-03T04:58:10.457Z,3.00
2022-08-03T05:00:37.137Z,2.65
2022-08-03T05:03:23.790Z,3.10
2022-08-03T05:05:51.293Z,2.97
2022-08-03T05:08:20.737Z,3.30
2022-08-03T05:10:54.818Z,2.97
2022-08-03T05:13:21.441Z,3.38
2022-08-03T05:15:48.036Z,3.47
2022-08-03T05:18:16.237Z,3.30
2022-08-03T05:20:42.836Z,3.10
2022-08-03T05:23:09.460Z,3.35
2022-08-03T05:25:36.214Z,3.53
2022-08-03T05:28:03.888Z,3.17
2022-08-03T05:30:33.901Z,3.60
2022-08-03T05:33:01.615Z,3.50
2022-08-03T05:35:56.003Z,3.22
2022-08-03T05:38:28.210Z,3.15
2022-08-03T05:41:20.257Z,3.38
2022-08-03T05:43:47.198Z,3.70
2022-08-03T05:46:13.895Z,3.33
2022-08-03T05:48:41.144Z,3.38
2022-08-03T05:51:09.357Z,3.00
2022-08-03T05:53:36.053Z,3.33
2022-08-03T05:56:13.263Z,4.07
2022-08-03T05:58:41.763Z,3.53
2022-08-03T06:01:08.509Z,3.53
2022-08-03T06:03:35.214Z,3.40
2022-08-03T06:06:01.828Z,3.42
2022-08-03T06:08:31.976Z,3.33
2022-08-03T06:10:58.629Z,3.80
2022-08-03T06:13:25.235Z,3.80
2022-08-03T06:15:52.066Z,3.78
2022-08-03T06:18:18.675Z,3.63
2022-08-03T06:20:45.386Z,3.83
2022-08-03T06:23:17.636Z,3.80
2022-08-03T06:25:46.362Z,3.97
2022-08-03T06:28:35.198Z,3.60
2022-08-03T06:30:59.706Z,3.70
2022-08-03T06:33:26.385Z,4.00
2022-08-03T06:36:12.993Z,3.95
2022-08-03T06:38:39.870Z,3.60
2022-08-03T06:41:07.954Z,3.20
2022-08-03T06:43:35.896Z,3.42
2022-08-03T06:46:02.929Z,3.30
2022-08-03T06:48:29.574Z,2.90
2022-08-03T06:50:56.374Z,3.10
2022-08-03T06:53:23.138Z,2.90
2022-08-03T06:55:54.265Z,3.00
2022-08-03T06:58:22.900Z,3.10
2022-08-03T07:00:53.197Z,3.42
2022-08-03T07:03:19.806Z,2.78
2022-08-03T07:05:46.535Z,2.85
2022-08-03T07:08:13.203Z,2.95
2022-08-03T07:10:39.974Z,3.00
2022-08-03T07:13:06.886Z,3.05
2022-08-03T07:15:56.170Z,2.63
2022-08-03T07:18:29.399Z,3.40
2022-08-03T07:20:56.813Z,2.58
2022-08-03T07:26:17.566Z,3.33
2022-08-03T07:28:44.230Z,2.90
2022-08-03T07:31:12.227Z,3.45
2022-08-03T07:33:38.858Z,4.05
2022-08-03T07:36:05.789Z,3.90
2022-08-03T07:38:32.497Z,3.33
2022-08-03T07:40:59.153Z,2.80
2022-08-03T07:43:26.303Z,3.40
2022-08-03T07:45:53.280Z,3.50
2022-08-03T07:48:21.469Z,3.87
2022-08-03T07:50:48.345Z,3.13
2022-08-03T07:53:15.014Z,3.58
2022-08-03T07:55:41.670Z,3.08
2022-08-03T07:58:10.232Z,3.42
2022-08-03T08:00:36.996Z,3.00
2022-08-03T08:03:04.550Z,3.00
2022-08-03T08:05:32.728Z,2.55
2022-08-03T08:07:59.598Z,3.17
2022-08-03T08:10:26.690Z,3.40
2022-08-03T08:12:57.133Z,3.17
2022-08-03T08:15:30.241Z,3.40
2022-08-03T08:17:58.502Z,3.13
2022-08-03T08:20:30.501Z,2.90
2022-08-03T08:23:02.141Z,3.20
2022-08-03T08:25:31.304Z,2.93
2022-08-03T08:28:29.062Z,2.92
2022-08-03T08:30:46.188Z,2.95
2022-08-03T08:33:22.569Z,3.30
2022-08-03T08:35:49.594Z,2.53
2022-08-03T08:38:17.601Z,3.10
2022-08-03T08:40:44.271Z,2.88
2022-08-03T08:43:10.913Z,3.42
2022-08-03T08:45:37.810Z,2.90
2022-08-03T08:48:08.324Z,2.85
2022-08-03T08:50:41.969Z,2.43
2022-08-03T08:53:17.470Z,2.75
2022-08-03T08:55:57.955Z,2.47
2022-08-03T08:58:32.097Z,2.20
2022-08-03T09:00:58.997Z,2.72
2022-08-03T09:03:29.680Z,2.77
2022-08-03T09:05:59.501Z,3.15
2022-08-03T09:08:26.181Z,2.88
2022-08-03T09:10:54.236Z,2.65
2022-08-03T09:13:21.131Z,2.25
2022-08-03T09:15:57.240Z,2.10
2022-08-03T09:18:32.174Z,2.83
2022-08-03T09:21:30.060Z,2.72
2022-08-03T09:24:04.108Z,2.53
2022-08-03T09:26:34.518Z,2.55
2022-08-03T09:29:08.104Z,2.77
2022-08-03T09:31:43.367Z,2.35
2022-08-03T09:34:11.765Z,2.70
2022-08-03T09:36:40.817Z,2.72
2022-08-03T09:39:09.149Z,3.17
2022-08-03T09:41:37.940Z,2.67
2022-08-03T09:44:04.981Z,2.15
2022-08-03T09:46:31.778Z,2.20
2022-08-03T09:49:12.022Z,2.40
2022-08-03T09:52:31.977Z,2.53
2022-08-03T09:54:27.346Z,2.30
2022-08-03T09:56:55.860Z,2.30
2022-08-03T09:59:27.116Z,2.30
2022-08-03T10:01:56.800Z,2.50
2022-08-03T10:04:24.552Z,2.22
2022-08-03T10:07:05.941Z,2.20
2022-08-03T10:09:33.050Z,2.13
2022-08-03T10:12:09.521Z,2.22
2022-08-03T10:14:38.899Z,1.88
2022-08-03T10:17:05.716Z,2.38
2022-08-03T10:19:37.168Z,2.30
2022-08-03T10:22:09.286Z,2.20
2022-08-03T10:24:39.256Z,1.83
2022-08-03T10:27:09.820Z,2.08
2022-08-03T10:29:38.735Z,2.33
2022-08-03T10:32:12.721Z,1.77
2022-08-03T10:34:44.529Z,1.92
2022-08-03T10:37:13.723Z,2.00
2022-08-03T10:39:44.580Z,2.70
2022-08-03T10:42:14.501Z,2.25
2022-08-03T10:44:42.350Z,2.03
2022-08-03T10:47:10.395Z,2.10
2022-08-03T10:49:37.894Z,2.05
2022-08-03T10:52:13.404Z,1.88
2022-08-03T10:54:52.534Z,2.03
2022-08-03T10:57:46.482Z,2.37
2022-08-03T11:00:23.307Z,1.90
2022-08-03T11:03:13.994Z,2.08
2022-08-03T11:05:42.276Z,1.90
2022-08-03T11:08:26.791Z,1.90
2022-08-03T11:10:55.497Z,2.30
2022-08-03T11:13:24.954Z,2.20
2022-08-03T11:16:00.076Z,2.50
2022-08-03T11:18:29.417Z,2.00
2022-08-03T11:20:57.273Z,1.73
2022-08-03T11:24:04.810Z,1.93
2022-08-03T11:26:33.909Z,2.15
2022-08-03T11:29:29.616Z,1.73
2022-08-03T11:31:56.768Z,1.92
2022-08-03T11:34:23.996Z,2.20
2022-08-03T11:37:19.805Z,2.00
2022-08-03T11:39:48.228Z,1.98
2022-08-03T11:42:40.582Z,2.20
2022-08-03T11:45:09.382Z,1.83
2022-08-03T11:47:50.836Z,1.90
2022-08-03T11:50:18.861Z,2.10
2022-08-03T11:52:45.785Z,2.03
2022-08-03T11:55:15.276Z,2.20
2022-08-03T11:59:10.883Z,2.00
2022-08-03T12:00:33.117Z,1.90
2022-08-03T12:03:03.021Z,2.10
2022-08-03T12:05:38.245Z,1.98
2022-08-03T12:08:07.396Z,1.85
2022-08-03T12:10:34.768Z,2.50
2022-08-03T12:13:02.725Z,2.00
2022-08-03T12:15:33.085Z,1.83
2022-08-03T12:18:00.163Z,1.80
2022-08-03T12:20:35.516Z,1.70
2022-08-03T12:23:03.970Z,1.90
2022-08-03T12:25:39.331Z,1.95
2022-08-03T12:28:31.822Z,1.93
2022-08-03T12:31:02.576Z,2.00
2022-08-03T12:33:29.866Z,1.50
2022-08-03T12:36:06.097Z,1.65
2022-08-03T12:38:33.968Z,1.90
2022-08-03T12:41:05.201Z,1.90
2022-08-03T12:43:36.655Z,1.40
2022-08-03T12:46:15.577Z,1.70
2022-08-03T12:49:04.394Z,1.83
2022-08-03T12:51:33.084Z,1.58
2022-08-03T12:53:59.784Z,1.90
2022-08-03T12:56:26.604Z,1.88
2022-08-03T12:58:53.366Z,1.50
2022-08-03T13:01:21.872Z,1.65
2022-08-03T13:03:52.874Z,1.80
2022-08-03T13:06:23.275Z,1.93
2022-08-03T13:08:54.610Z,1.80
2022-08-03T13:11:23.191Z,1.95
2022-08-03T13:14:09.921Z,1.83
2022-08-03T13:16:44.702Z,2.00
2022-08-03T13:19:15.811Z,1.77
2022-08-03T13:22:01.732Z,1.70
2022-08-03T13:24:29.885Z,2.40
2022-08-03T13:27:22.529Z,1.85
2022-08-03T13:29:47.697Z,1.83
2022-08-03T13:32:16.064Z,1.90
2022-08-03T13:34:42.753Z,1.90
2022-08-03T13:37:10.075Z,2.13
2022-08-03T13:39:57.339Z,2.08
2022-08-03T13:42:25.866Z,1.85
2022-08-03T13:44:52.585Z,2.33
2022-08-03T13:47:21.114Z,2.15
2022-08-03T13:50:00.269Z,1.63
2022-08-03T13:52:29.432Z,1.95
2022-08-03T13:54:56.141Z,2.30
2022-08-03T13:58:03.515Z,2.23
2022-08-03T14:00:10.677Z,2.03
2022-08-03T14:02:38.817Z,2.05
2022-08-03T14:05:05.843Z,2.22
2022-08-03T14:07:32.490Z,2.20
2022-08-03T14:10:03.187Z,1.97
2022-08-03T14:12:33.761Z,2.03
2022-08-03T14:15:01.721Z,2.33
2022-08-03T14:17:28.637Z,2.25
2022-08-03T14:20:37.321Z,2.38
2022-08-03T14:22:57.852Z,2.10
2022-08-03T14:25:26.506Z,2.35
2022-08-03T14:27:53.134Z,1.63
2022-08-03T14:30:19.963Z,2.17
2022-08-03T14:32:46.563Z,2.25
2022-08-03T14:35:14.595Z,2.27
2022-08-03T14:37:41.346Z,2.30
2022-08-03T14:40:08.720Z,2.10
2022-08-03T14:42:35.448Z,2.08
2022-08-03T14:45:07.215Z,2.10
2022-08-03T14:49:02.206Z,2.37
2022-08-03T14:50:36.561Z,2.28
2022-08-03T14:53:07.658Z,2.10
2022-08-03T14:55:38.477Z,1.90
2022-08-03T14:58:05.618Z,2.20
2022-08-03T15:00:46.483Z,2.20
2022-08-03T15:03:13.201Z,1.90
2022-08-03T15:05:44.907Z,2.05
2022-08-03T15:08:11.557Z,2.17
2022-08-03T15:10:44.369Z,2.40
2022-08-03T15:13:12.057Z,2.20
2022-08-03T15:15:38.940Z,2.20
2022-08-03T15:18:05.718Z,1.63
2022-08-03T15:20:43.754Z,2.20
2022-08-03T15:23:14.025Z,2.22
2022-08-03T15:26:28.962Z,2.10
2022-08-03T15:28:27.446Z,2.53
2022-08-03T15:30:54.413Z,2.08
2022-08-03T15:36:16.282Z,2.20
2022-08-03T15:38:44.381Z,2.40
2022-08-03T15:41:11.362Z,2.30
2022-08-03T15:43:40.887Z,2.25
2022-08-03T15:46:28.725Z,2.17
2022-08-03T15:48:56.382Z,2.10
2022-08-03T15:51:23.042Z,2.33
2022-08-03T15:53:51.134Z,2.28
2022-08-03T15:56:18.859Z,2.53
2022-08-03T15:58:59.573Z,2.40
2022-08-03T16:01:32.460Z,2.00
2022-08-03T16:03:59.284Z,2.43
2022-08-03T16:06:34.731Z,2.38
2022-08-03T16:09:04.970Z,2.40
2022-08-03T16:11:31.795Z,2.30
2022-08-03T16:14:11.941Z,2.22
2022-08-03T16:16:45.163Z,2.27
2022-08-03T16:19:13.308Z,1.92
2022-08-03T16:21:48.348Z,2.10
2022-08-03T16:24:17.473Z,2.40
2022-08-03T16:26:49.723Z,2.35
2022-08-03T16:29:23.100Z,2.50
2022-08-03T16:31:50.972Z,2.28
2022-08-03T16:34:18.217Z,2.28
2022-08-03T16:36:45.766Z,2.30
2022-08-03T16:39:12.689Z,2.13
2022-08-03T16:41:53.635Z,2.03
2022-08-03T16:44:28.779Z,2.33
2022-08-03T16:46:55.433Z,2.20
2022-08-03T16:49:53.743Z,2.33
2022-08-03T16:52:08.676Z,2.22
2022-08-03T16:54:35.365Z,2.30
2022-08-03T16:57:03.668Z,2.50
2022-08-03T16:59:37.239Z,2.20
2022-08-03T17:02:09.946Z,2.53
2022-08-03T17:04:36.961Z,2.40
2022-08-03T17:07:08.828Z,2.33
2022-08-03T17:09:38.486Z,2.22
2022-08-03T17:12:07.277Z,2.15
2022-08-03T17:14:37.733Z,2.45
2022-08-03T17:17:16.384Z,2.15
2022-08-03T17:19:47.250Z,2.40
2022-08-03T17:22:17.715Z,2.30
2022-08-03T17:24:46.461Z,2.20
2022-08-03T17:28:41.765Z,2.20
2022-08-03T17:30:08.035Z,2.80
2022-08-03T17:32:42.480Z,1.80
2022-08-03T17:35:10.643Z,2.05
2022-08-03T17:37:58.240Z,1.77
2022-08-03T17:40:28.812Z,2.30
2022-08-03T17:43:02.602Z,2.10
2022-08-03T17:45:52.726Z,2.00
2022-08-03T17:48:21.390Z,2.20
2022-08-03T17:50:55.418Z,2.00
2022-08-03T17:53:29.269Z,2.05
2022-08-03T17:56:40.812Z,2.30
2022-08-03T17:59:08.439Z,1.93
2022-08-03T18:01:59.640Z,2.15
2022-08-03T18:04:29.776Z,1.90
2022-08-03T18:06:58.683Z,2.22
2022-08-03T18:10:04.286Z,2.30
2022-08-03T18:12:28.908Z,2.13
2022-08-03T18:17:55.948Z,1.92
2022-08-03T18:23:24.584Z,2.15
2022-08-03T18:26:04.935Z,2.07
2022-08-03T18:28:33.656Z,2.00
2022-08-03T18:31:05.735Z,2.40
2022-08-03T18:34:19.598Z,2.30
2022-08-03T18:36:30.052Z,2.30
2022-08-03T18:38:59.216Z,1.93
2022-08-03T18:41:33.008Z,1.92
2022-08-03T18:44:07.812Z,2.20
2022-08-03T18:46:46.921Z,2.10
2022-08-03T18:49:24.539Z,2.10
2022-08-03T18:52:02.482Z,2.10
2022-08-03T18:54:46.681Z,2.42
2022-08-03T18:57:34.914Z,1.90
2022-08-03T19:00:10.515Z,2.25
2022-08-03T19:02:48.977Z,2.33
2022-08-03T19:05:19.126Z,2.10
2022-08-03T19:07:58.413Z,2.22
2022-08-03T19:10:30.730Z,1.80
2022-08-03T19:13:02.849Z,2.17
2022-08-03T19:15:41.461Z,1.75
2022-08-03T19:18:21.013Z,2.40
2022-08-03T19:20:50.461Z,1.85
2022-08-03T19:23:23.745Z,1.88
2022-08-03T19:25:50.757Z,1.80
2022-08-03T19:28:17.874Z,2.00
2022-08-03T19:30:53.676Z,1.57
2022-08-03T19:33:25.530Z,2.22
2022-08-03T19:35:57.495Z,2.35
2022-08-03T19:38:28.428Z,1.90
2022-08-03T19:40:57.643Z,2.13
2022-08-03T19:43:33.318Z,2.57
2022-08-03T19:46:17.005Z,2.28
2022-08-03T19:48:55.529Z,2.00
2022-08-03T19:51:59.048Z,2.17
2022-08-03T19:54:12.474Z,2.38
2022-08-03T19:56:44.110Z,2.20
2022-08-03T19:59:14.305Z,2.35
2022-08-03T20:04:32.059Z,2.00
2022-08-03T20:06:59.373Z,1.98
2022-08-03T20:09:30.508Z,2.57
2022-08-03T20:11:57.293Z,2.05
2022-08-03T20:14:26.361Z,2.65
2022-08-03T20:16:53.222Z,2.55
2022-08-03T20:19:20.120Z,2.10
2022-08-03T20:21:50.980Z,2.47
2022-08-03T20:24:28.341Z,2.50
2022-08-03T20:26:57.061Z,2.40
2022-08-03T20:29:42.767Z,2.97
2022-08-03T20:32:24.798Z,2.80
2022-08-03T20:34:51.702Z,2.57
2022-08-03T20:37:21.108Z,2.75
2022-08-03T20:39:49.374Z,2.35
2022-08-03T20:42:21.649Z,2.55
2022-08-03T20:45:04.670Z,2.30
2022-08-03T20:47:35.698Z,2.17
2022-08-03T20:50:03.034Z,2.10
2022-08-03T20:52:31.520Z,2.50
2022-08-03T20:54:59.328Z,2.38
2022-08-03T20:57:33.141Z,2.60
2022-08-03T21:00:02.161Z,2.30
2022-08-03T21:02:31.200Z,2.30
2022-08-03T21:04:59.163Z,2.33
2022-08-03T21:08:03.991Z,2.33
2022-08-03T21:10:33.253Z,2.47
2022-08-03T21:12:57.371Z,2.42
2022-08-03T21:13:03.415Z,2.13
2022-08-03T21:13:05.402Z,2.30
2022-08-03T21:13:22.583Z,2.30
2022-08-03T21:16:06.736Z,2.65
2022-08-03T21:18:44.913Z,2.35
2022-08-03T21:21:14.540Z,2.28
2022-08-03T21:23:49.635Z,2.40
2022-08-03T21:26:17.909Z,2.57
2022-08-03T21:28:45.990Z,2.20
2022-08-03T21:31:14.015Z,2.20
2022-08-03T21:33:40.905Z,2.50
2022-08-03T21:36:11.223Z,2.13
2022-08-03T21:38:39.563Z,2.23
2022-08-03T21:41:07.882Z,2.30
2022-08-03T21:43:34.695Z,2.25
2022-08-03T21:46:04.015Z,2.53
2022-08-03T21:48:35.059Z,2.28
2022-08-03T21:51:02.989Z,2.33
2022-08-03T21:54:02.442Z,2.50
2022-08-03T21:56:21.903Z,2.35
2022-08-03T21:58:53.164Z,2.30
2022-08-03T22:01:22.334Z,2.40
2022-08-03T22:03:53.331Z,2.33
2022-08-03T22:06:21.410Z,2.58
2022-08-03T22:08:50.370Z,2.10
2022-08-03T22:11:17.099Z,2.42
2022-08-03T22:13:45.323Z,2.50
2022-08-03T22:16:13.419Z,2.40
2022-08-03T22:18:42.491Z,2.10
2022-08-03T22:21:10.152Z,2.97
2022-08-03T22:23:40.391Z,2.60
2022-08-03T22:26:11.225Z,2.25
2022-08-03T22:28:38.052Z,2.63
2022-08-03T22:31:57.235Z,2.30
2022-08-03T22:33:54.957Z,2.50
2022-08-03T22:36:23.720Z,2.50
2022-08-03T22:38:51.689Z,2.58
2022-08-03T22:41:19.165Z,2.57
2022-08-03T22:43:46.065Z,2.40
2022-08-03T22:46:18.721Z,2.80
2022-08-03T22:48:46.965Z,2.30
2022-08-03T22:51:16.005Z,2.28
2022-08-03T22:53:44.897Z,2.30
2022-08-03T22:56:11.812Z,2.53
2022-08-03T22:58:38.485Z,2.28
2022-08-03T23:01:07.062Z,2.17
2022-08-03T23:04:00.508Z,2.15
2022-08-03T23:06:27.058Z,2.00
2022-08-03T23:08:54.363Z,2.40
2022-08-03T23:11:23.807Z,2.58
2022-08-03T23:13:53.989Z,2.38
2022-08-03T23:16:29.175Z,2.50
2022-08-03T23:18:58.773Z,2.30
2022-08-03T23:22:01.014Z,2.50
2022-08-03T23:24:26.073Z,2.50
2022-08-03T23:26:57.188Z,2.30
2022-08-03T23:29:23.943Z,2.35
2022-08-03T23:31:53.566Z,2.33
2022-08-03T23:34:23.236Z,2.50
2022-08-03T23:36:49.904Z,2.22
2022-08-03T23:39:17.992Z,2.33
2022-08-03T23:41:45.748Z,2.35
2022-08-03T23:44:13.265Z,2.60
2022-08-03T23:46:41.813Z,2.75
2022-08-03T23:49:08.492Z,2.35
2022-08-03T23:51:45.112Z,2.80
2022-08-03T23:54:23.926Z,2.45
2022-08-03T23:56:54.642Z,2.60
2022-08-03T23:59:27.840Z,2.60
